sensor_id;sensor_type;location;lat;lon;timestamp;pressure;altitude;pressure_sealevel;temperature;humidity
78123;BME280;67376;44.802;10.332;2023-02-28T00:00:01;101562.44;;;17.54;38.41
78123;BME280;67376;44.802;10.332;2023-02-28T00:02:26;101573.69;;;17.58;38.64
78123;BME280;67376;44.802;10.332;2023-02-28T00:04:51;101575.75;;;17.56;38.78
78123;BME280;67376;44.802;10.332;2023-02-28T00:07:26;101571.38;;;17.55;38.66
78123;BME280;67376;44.802;10.332;2023-02-28T00:09:51;101569.97;;;17.59;38.61
78123;BME280;67376;44.802;10.332;2023-02-28T00:12:17;101576.78;;;17.55;38.65
78123;BME280;67376;44.802;10.332;2023-02-28T00:14:42;101576.59;;;17.56;38.82
78123;BME280;67376;44.802;10.332;2023-02-28T00:17:08;101585.53;;;17.57;38.52
78123;BME280;67376;44.802;10.332;2023-02-28T00:19:33;101580.97;;;17.57;38.49
78123;BME280;67376;44.802;10.332;2023-02-28T00:21:58;101584.25;;;17.53;38.71
78123;BME280;67376;44.802;10.332;2023-02-28T00:24:24;101589.66;;;17.53;38.74
78123;BME280;67376;44.802;10.332;2023-02-28T00:26:49;101588.63;;;17.54;39.11
78123;BME280;67376;44.802;10.332;2023-02-28T00:29:15;101601.88;;;17.48;38.83
78123;BME280;67376;44.802;10.332;2023-02-28T00:31:40;101597.53;;;17.54;38.39
78123;BME280;67376;44.802;10.332;2023-02-28T00:34:05;101598.38;;;17.55;39.01
78123;BME280;67376;44.802;10.332;2023-02-28T00:36:31;101586.69;;;17.47;38.65
78123;BME280;67376;44.802;10.332;2023-02-28T00:38:56;101595.69;;;17.55;38.78
78123;BME280;67376;44.802;10.332;2023-02-28T00:41:22;101598.59;;;17.53;38.91
78123;BME280;67376;44.802;10.332;2023-02-28T00:43:47;101602.75;;;17.56;38.87
78123;BME280;67376;44.802;10.332;2023-02-28T00:46:12;101599.84;;;17.57;38.40
78123;BME280;67376;44.802;10.332;2023-02-28T00:48:38;101594.00;;;17.54;38.36
78123;BME280;67376;44.802;10.332;2023-02-28T00:51:03;101594.84;;;17.54;38.94
78123;BME280;67376;44.802;10.332;2023-02-28T00:53:29;101598.13;;;17.49;38.82
78123;BME280;67376;44.802;10.332;2023-02-28T00:55:55;101599.59;;;17.52;38.33
78123;BME280;67376;44.802;10.332;2023-02-28T00:58:20;101598.97;;;17.50;38.60
78123;BME280;67376;44.802;10.332;2023-02-28T01:00:46;101597.94;;;17.51;38.92
78123;BME280;67376;44.802;10.332;2023-02-28T01:03:18;101595.44;;;17.49;38.88
78123;BME280;67376;44.802;10.332;2023-02-28T01:05:44;101595.44;;;17.49;38.95
78123;BME280;67376;44.802;10.332;2023-02-28T01:08:09;101598.59;;;17.53;39.07
78123;BME280;67376;44.802;10.332;2023-02-28T01:10:35;101601.03;;;17.48;38.73
78123;BME280;67376;44.802;10.332;2023-02-28T01:13:02;101603.34;;;17.51;38.25
78123;BME280;67376;44.802;10.332;2023-02-28T01:15:28;101600.06;;;17.56;39.02
78123;BME280;67376;44.802;10.332;2023-02-28T01:17:53;101600.44;;;17.53;38.96
78123;BME280;67376;44.802;10.332;2023-02-28T01:20:19;101605.41;;;17.49;38.78
78123;BME280;67376;44.802;10.332;2023-02-28T01:22:44;101592.16;;;17.54;38.32
78123;BME280;67376;44.802;10.332;2023-02-28T01:25:10;101601.47;;;17.52;38.73
78123;BME280;67376;44.802;10.332;2023-02-28T01:27:36;101601.41;;;17.45;38.71
78123;BME280;67376;44.802;10.332;2023-02-28T01:30:02;101592.09;;;17.47;38.72
78123;BME280;67376;44.802;10.332;2023-02-28T01:32:27;101598.78;;;17.52;38.88
78123;BME280;67376;44.802;10.332;2023-02-28T01:34:53;101602.06;;;17.47;38.65
78123;BME280;67376;44.802;10.332;2023-02-28T01:37:18;101602.91;;;17.47;38.78
78123;BME280;67376;44.802;10.332;2023-02-28T01:39:44;101609.53;;;17.45;38.74
78123;BME280;67376;44.802;10.332;2023-02-28T01:42:09;101601.41;;;17.45;39.13
78123;BME280;67376;44.802;10.332;2023-02-28T01:44:55;101592.09;;;17.47;38.47
78123;BME280;67376;44.802;10.332;2023-02-28T01:47:23;101596.03;;;17.45;38.64
78123;BME280;67376;44.802;10.332;2023-02-28T01:49:50;101588.75;;;17.45;38.67
78123;BME280;67376;44.802;10.332;2023-02-28T01:52:17;101593.75;;;17.48;38.66
78123;BME280;67376;44.802;10.332;2023-02-28T01:54:51;101594.59;;;17.49;39.15
78123;BME280;67376;44.802;10.332;2023-02-28T01:57:20;101592.09;;;17.47;38.78
78123;BME280;67376;44.802;10.332;2023-02-28T01:59:53;101590.03;;;17.49;38.97
78123;BME280;67376;44.802;10.332;2023-02-28T02:02:21;101587.97;;;17.52;38.10
78123;BME280;67376;44.802;10.332;2023-02-28T02:04:55;101584.59;;;17.43;38.56
78123;BME280;67376;44.802;10.332;2023-02-28T02:07:23;101586.91;;;17.46;38.82
78123;BME280;67376;44.802;10.332;2023-02-28T02:09:50;101588.56;;;17.47;38.78
78123;BME280;67376;44.802;10.332;2023-02-28T02:12:29;101601.88;;;17.48;38.68
78123;BME280;67376;44.802;10.332;2023-02-28T02:15:01;101581.94;;;17.49;38.72
78123;BME280;67376;44.802;10.332;2023-02-28T02:17:32;101584.19;;;17.46;38.24
78123;BME280;67376;44.802;10.332;2023-02-28T02:31:15;101575.91;;;17.47;38.85
78123;BME280;67376;44.802;10.332;2023-02-28T02:36:49;101566.28;;;17.38;39.09
78123;BME280;67376;44.802;10.332;2023-02-28T02:39:48;101580.59;;;17.39;38.81
78123;BME280;67376;44.802;10.332;2023-02-28T02:42:21;101587.28;;;17.43;38.90
78123;BME280;67376;44.802;10.332;2023-02-28T02:44:55;101596.22;;;17.43;38.79
78123;BME280;67376;44.802;10.332;2023-02-28T02:47:26;101602.00;;;17.40;38.41
78123;BME280;67376;44.802;10.332;2023-02-28T02:49:56;101591.22;;;17.40;38.85
78123;BME280;67376;44.802;10.332;2023-02-28T02:52:32;101593.50;;;17.43;38.67
78123;BME280;67376;44.802;10.332;2023-02-28T02:55:02;101593.25;;;17.38;38.58
78123;BME280;67376;44.802;10.332;2023-02-28T02:57:38;101595.78;;;17.40;38.73
78123;BME280;67376;44.802;10.332;2023-02-28T03:00:05;101587.09;;;17.44;38.31
78123;BME280;67376;44.802;10.332;2023-02-28T03:02:34;101592.03;;;17.41;38.54
78123;BME280;67376;44.802;10.332;2023-02-28T03:05:08;101582.03;;;17.35;38.35
78123;BME280;67376;44.802;10.332;2023-02-28T03:07:37;101588.50;;;17.40;38.91
78123;BME280;67376;44.802;10.332;2023-02-28T03:10:03;101587.66;;;17.40;38.56
78123;BME280;67376;44.802;10.332;2023-02-28T03:12:53;101591.22;;;17.40;38.71
78123;BME280;67376;44.802;10.332;2023-02-28T03:15:24;101594.94;;;17.39;38.48
78123;BME280;67376;44.802;10.332;2023-02-28T03:18:01;101595.13;;;17.38;38.58
78123;BME280;67376;44.802;10.332;2023-02-28T03:21:03;101598.22;;;17.35;38.45
78123;BME280;67376;44.802;10.332;2023-02-28T03:23:40;101592.41;;;17.31;38.74
78123;BME280;67376;44.802;10.332;2023-02-28T03:26:20;101593.91;;;17.40;38.79
78123;BME280;67376;44.802;10.332;2023-02-28T03:31:22;101594.69;;;17.34;38.33
78123;BME280;67376;44.802;10.332;2023-02-28T03:36:39;101599.88;;;17.36;38.83
78123;BME280;67376;44.802;10.332;2023-02-28T03:39:14;101598.22;;;17.35;38.47
78123;BME280;67376;44.802;10.332;2023-02-28T03:42:03;101600.09;;;17.34;38.62
78123;BME280;67376;44.802;10.332;2023-02-28T03:44:34;101602.59;;;17.36;38.60
78123;BME280;67376;44.802;10.332;2023-02-28T03:47:11;101601.94;;;17.34;38.77
78123;BME280;67376;44.802;10.332;2023-02-28T03:52:24;101596.13;;;17.30;38.62
78123;BME280;67376;44.802;10.332;2023-02-28T03:54:53;101599.88;;;17.36;38.54
78123;BME280;67376;44.802;10.332;2023-02-28T03:57:35;101604.88;;;17.32;39.09
78123;BME280;67376;44.802;10.332;2023-02-28T04:00:07;101602.16;;;17.32;38.20
78123;BME280;67376;44.802;10.332;2023-02-28T04:02:35;101606.31;;;17.35;38.44
78123;BME280;67376;44.802;10.332;2023-02-28T04:05:00;101609.63;;;17.30;38.38
78123;BME280;67376;44.802;10.332;2023-02-28T04:07:29;101614.00;;;17.31;38.38
78123;BME280;67376;44.802;10.332;2023-02-28T04:09:55;101614.00;;;17.31;38.49
78123;BME280;67376;44.802;10.332;2023-02-28T04:12:20;101610.47;;;17.31;38.77
78123;BME280;67376;44.802;10.332;2023-02-28T04:14:48;101611.09;;;17.33;38.45
78123;BME280;67376;44.802;10.332;2023-02-28T04:17:13;101605.28;;;17.36;38.54
78123;BME280;67376;44.802;10.332;2023-02-28T04:19:39;101612.16;;;17.38;37.94
78123;BME280;67376;44.802;10.332;2023-02-28T04:22:04;101612.16;;;17.38;37.71
78123;BME280;67376;44.802;10.332;2023-02-28T04:24:29;101616.72;;;17.38;37.51
78123;BME280;67376;44.802;10.332;2023-02-28T04:26:56;101619.63;;;17.36;37.93
78123;BME280;67376;44.802;10.332;2023-02-28T04:29:29;101616.50;;;17.33;37.70
78123;BME280;67376;44.802;10.332;2023-02-28T04:31:55;101618.97;;;17.34;37.37
78123;BME280;67376;44.802;10.332;2023-02-28T04:34:24;101614.84;;;17.32;37.16
78123;BME280;67376;44.802;10.332;2023-02-28T04:36:50;101622.50;;;17.35;37.19
78123;BME280;67376;44.802;10.332;2023-02-28T04:39:18;101618.38;;;17.32;36.81
78123;BME280;67376;44.802;10.332;2023-02-28T04:41:44;101624.38;;;17.34;36.30
78123;BME280;67376;44.802;10.332;2023-02-28T04:44:10;101627.06;;;17.34;36.44
78123;BME280;67376;44.802;10.332;2023-02-28T04:46:36;101631.63;;;17.34;36.16
78123;BME280;67376;44.802;10.332;2023-02-28T04:49:01;101629.78;;;17.34;36.47
78123;BME280;67376;44.802;10.332;2023-02-28T04:51:27;101626.19;;;17.27;37.25
78123;BME280;67376;44.802;10.332;2023-02-28T04:53:52;101622.28;;;17.30;35.82
78123;BME280;67376;44.802;10.332;2023-02-28T04:56:18;101625.19;;;17.28;36.63
78123;BME280;67376;44.802;10.332;2023-02-28T04:58:44;101632.81;;;17.25;35.61
78123;BME280;67376;44.802;10.332;2023-02-28T05:01:25;101628.91;;;17.27;36.13
78123;BME280;67376;44.802;10.332;2023-02-28T05:03:52;101632.44;;;17.28;35.73
78123;BME280;67376;44.802;10.332;2023-02-28T05:06:18;101632.81;;;17.25;35.41
78123;BME280;67376;44.802;10.332;2023-02-28T05:08:46;101631.16;;;17.24;35.58
78123;BME280;67376;44.802;10.332;2023-02-28T05:11:24;101610.53;;;17.16;35.87
78123;BME280;67376;44.802;10.332;2023-02-28T05:13:50;101627.22;;;17.26;35.53
78123;BME280;67376;44.802;10.332;2023-02-28T05:16:16;101623.69;;;17.26;35.29
78123;BME280;67376;44.802;10.332;2023-02-28T05:18:42;101628.84;;;17.21;34.94
78123;BME280;67376;44.802;10.332;2023-02-28T05:21:24;101623.91;;;17.24;35.28
78123;BME280;67376;44.802;10.332;2023-02-28T05:23:51;101632.19;;;17.23;35.33
78123;BME280;67376;44.802;10.332;2023-02-28T05:26:17;101632.94;;;17.16;35.30
78123;BME280;67376;44.802;10.332;2023-02-28T05:28:43;101637.31;;;17.17;36.21
78123;BME280;67376;44.802;10.332;2023-02-28T05:31:10;101637.13;;;17.19;35.99
78123;BME280;67376;44.802;10.332;2023-02-28T05:33:36;101634.81;;;17.16;35.71
78123;BME280;67376;44.802;10.332;2023-02-28T05:36:01;101636.41;;;17.10;36.34
78123;BME280;67376;44.802;10.332;2023-02-28T05:38:27;101631.47;;;17.14;36.11
78123;BME280;67376;44.802;10.332;2023-02-28T05:40:52;101634.34;;;17.12;36.34
78123;BME280;67376;44.802;10.332;2023-02-28T05:43:18;101636.47;;;17.17;36.13
78123;BME280;67376;44.802;10.332;2023-02-28T05:45:43;101634.16;;;17.14;36.75
78123;BME280;67376;44.802;10.332;2023-02-28T05:48:09;101634.63;;;17.17;36.32
78123;BME280;67376;44.802;10.332;2023-02-28T05:50:34;101629.22;;;17.17;36.40
78123;BME280;67376;44.802;10.332;2023-02-28T05:53:00;101636.28;;;17.19;36.33
78123;BME280;67376;44.802;10.332;2023-02-28T05:55:25;101642.47;;;17.12;36.04
78123;BME280;67376;44.802;10.332;2023-02-28T05:57:51;101635.38;;;17.11;36.07
78123;BME280;67376;44.802;10.332;2023-02-28T06:00:16;101646.44;;;17.16;36.71
78123;BME280;67376;44.802;10.332;2023-02-28T06:02:43;101643.47;;;17.11;36.84
78123;BME280;67376;44.802;10.332;2023-02-28T06:05:15;101644.59;;;17.17;36.54
78123;BME280;67376;44.802;10.332;2023-02-28T06:07:40;101656.66;;;17.21;36.58
78123;BME280;67376;44.802;10.332;2023-02-28T06:10:06;101651.84;;;17.16;36.90
78123;BME280;67376;44.802;10.332;2023-02-28T06:12:32;101660.13;;;17.15;36.74
78123;BME280;67376;44.802;10.332;2023-02-28T06:14:57;101658.91;;;17.17;37.05
78123;BME280;67376;44.802;10.332;2023-02-28T06:17:22;101658.34;;;17.22;37.04
78123;BME280;67376;44.802;10.332;2023-02-28T06:19:48;101663.34;;;17.25;37.09
78123;BME280;67376;44.802;10.332;2023-02-28T06:22:13;101672.91;;;17.28;37.10
78123;BME280;67376;44.802;10.332;2023-02-28T06:24:39;101674.78;;;17.27;37.30
78123;BME280;67376;44.802;10.332;2023-02-28T06:27:04;101675.16;;;17.24;37.27
78123;BME280;67376;44.802;10.332;2023-02-28T06:29:34;101678.50;;;17.26;37.08
78123;BME280;67376;44.802;10.332;2023-02-28T06:31:59;101677.69;;;17.26;37.34
78123;BME280;67376;44.802;10.332;2023-02-28T06:34:25;101689.50;;;17.25;37.77
78123;BME280;67376;44.802;10.332;2023-02-28T06:36:51;101685.13;;;17.24;37.38
78123;BME280;67376;44.802;10.332;2023-02-28T06:39:17;101688.84;;;17.23;37.33
78123;BME280;67376;44.802;10.332;2023-02-28T06:41:42;101693.59;;;17.21;37.29
78123;BME280;67376;44.802;10.332;2023-02-28T06:44:15;101694.91;;;17.25;37.28
78123;BME280;67376;44.802;10.332;2023-02-28T06:46:42;101692.97;;;16.38;33.90
78123;BME280;67376;44.802;10.332;2023-02-28T06:49:10;101691.84;;;14.97;34.93
78123;BME280;67376;44.802;10.332;2023-02-28T06:51:37;101688.44;;;14.17;35.42
78123;BME280;67376;44.802;10.332;2023-02-28T06:54:03;101703.06;;;13.90;35.04
78123;BME280;67376;44.802;10.332;2023-02-28T06:56:28;101702.38;;;13.96;35.81
78123;BME280;67376;44.802;10.332;2023-02-28T06:58:54;101698.31;;;14.33;34.84
78123;BME280;67376;44.802;10.332;2023-02-28T07:01:20;101713.00;;;15.00;34.68
78123;BME280;67376;44.802;10.332;2023-02-28T07:03:47;101712.25;;;15.37;35.08
78123;BME280;67376;44.802;10.332;2023-02-28T07:06:18;101701.47;;;15.60;34.95
78123;BME280;67376;44.802;10.332;2023-02-28T07:08:43;101705.25;;;15.74;34.87
78123;BME280;67376;44.802;10.332;2023-02-28T07:11:09;101711.88;;;15.86;34.67
78123;BME280;67376;44.802;10.332;2023-02-28T07:13:35;101714.50;;;15.94;35.00
78123;BME280;67376;44.802;10.332;2023-02-28T07:16:04;101719.16;;;16.00;34.71
78123;BME280;67376;44.802;10.332;2023-02-28T07:18:31;101710.81;;;16.10;34.97
78123;BME280;67376;44.802;10.332;2023-02-28T07:20:57;101715.25;;;16.17;34.72
78123;BME280;67376;44.802;10.332;2023-02-28T07:23:23;101708.94;;;16.25;34.78
78123;BME280;67376;44.802;10.332;2023-02-28T07:25:50;101711.38;;;16.35;34.73
78123;BME280;67376;44.802;10.332;2023-02-28T07:28:15;101717.69;;;16.42;34.38
78123;BME280;67376;44.802;10.332;2023-02-28T07:30:41;101710.53;;;16.49;34.92
78123;BME280;67376;44.802;10.332;2023-02-28T07:33:06;101710.16;;;16.52;34.23
78123;BME280;67376;44.802;10.332;2023-02-28T07:35:32;101708.13;;;16.54;34.57
78123;BME280;67376;44.802;10.332;2023-02-28T07:37:58;101712.78;;;16.60;34.75
78123;BME280;67376;44.802;10.332;2023-02-28T07:40:24;101714.09;;;16.64;34.95
78123;BME280;67376;44.802;10.332;2023-02-28T07:42:50;101716.44;;;16.67;34.17
78123;BME280;67376;44.802;10.332;2023-02-28T07:45:15;101699.94;;;16.62;33.92
78123;BME280;67376;44.802;10.332;2023-02-28T07:47:43;101715.88;;;16.72;34.38
78123;BME280;67376;44.802;10.332;2023-02-28T07:50:11;101721.25;;;16.72;34.77
78123;BME280;67376;44.802;10.332;2023-02-28T07:52:37;101724.59;;;16.74;34.53
78123;BME280;67376;44.802;10.332;2023-02-28T07:55:04;101727.31;;;16.74;34.54
78123;BME280;67376;44.802;10.332;2023-02-28T07:57:30;101730.00;;;16.74;34.09
78123;BME280;67376;44.802;10.332;2023-02-28T07:59:55;101727.50;;;16.72;34.11
78123;BME280;67376;44.802;10.332;2023-02-28T08:02:21;101726.06;;;16.76;34.15
78123;BME280;67376;44.802;10.332;2023-02-28T08:04:46;101723.38;;;16.76;34.77
78123;BME280;67376;44.802;10.332;2023-02-28T08:07:13;101728.75;;;16.76;34.55
78123;BME280;67376;44.802;10.332;2023-02-28T08:09:40;101725.03;;;16.77;34.38
78123;BME280;67376;44.802;10.332;2023-02-28T08:12:09;101729.41;;;16.78;34.15
78123;BME280;67376;44.802;10.332;2023-02-28T08:14:36;101732.03;;;16.72;34.14
78123;BME280;67376;44.802;10.332;2023-02-28T08:17:02;101737.50;;;16.78;34.74
78123;BME280;67376;44.802;10.332;2023-02-28T08:19:27;101737.50;;;16.78;34.38
78123;BME280;67376;44.802;10.332;2023-02-28T08:21:53;101737.25;;;16.73;34.72
78123;BME280;67376;44.802;10.332;2023-02-28T08:24:18;101739.63;;;16.83;34.08
78123;BME280;67376;44.802;10.332;2023-02-28T08:26:44;101745.78;;;16.77;34.46
78123;BME280;67376;44.802;10.332;2023-02-28T08:29:09;101742.88;;;16.78;34.52
78123;BME280;67376;44.802;10.332;2023-02-28T08:31:35;101746.88;;;16.82;34.08
78123;BME280;67376;44.802;10.332;2023-02-28T08:34:07;101744.00;;;16.84;34.02
78123;BME280;67376;44.802;10.332;2023-02-28T08:36:34;101742.50;;;16.81;34.26
78123;BME280;67376;44.802;10.332;2023-02-28T08:39:00;101738.53;;;16.77;34.20
78123;BME280;67376;44.802;10.332;2023-02-28T08:41:25;101737.50;;;16.78;34.19
78123;BME280;67376;44.802;10.332;2023-02-28T08:43:51;101743.72;;;16.79;33.96
78123;BME280;67376;44.802;10.332;2023-02-28T08:46:17;101748.28;;;16.78;33.84
78123;BME280;67376;44.802;10.332;2023-02-28T08:48:43;101747.63;;;16.76;34.68
78123;BME280;67376;44.802;10.332;2023-02-28T08:51:18;101743.91;;;16.77;33.91
78123;BME280;67376;44.802;10.332;2023-02-28T08:53:47;101750.13;;;16.78;34.41
78123;BME280;67376;44.802;10.332;2023-02-28T08:56:15;101752.66;;;16.79;34.19
78123;BME280;67376;44.802;10.332;2023-02-28T08:58:42;101744.38;;;16.81;34.07
78123;BME280;67376;44.802;10.332;2023-02-28T09:01:17;101743.66;;;16.72;33.89
78123;BME280;67376;44.802;10.332;2023-02-28T09:03:44;101751.16;;;16.77;34.40
78123;BME280;67376;44.802;10.332;2023-02-28T09:06:11;101746.22;;;16.80;34.29
78123;BME280;67376;44.802;10.332;2023-02-28T09:08:37;101745.16;;;16.75;34.26
78123;BME280;67376;44.802;10.332;2023-02-28T09:11:03;101743.47;;;16.74;33.87
78123;BME280;67376;44.802;10.332;2023-02-28T09:13:29;101750.59;;;16.81;33.91
78123;BME280;67376;44.802;10.332;2023-02-28T09:15:59;101749.97;;;16.79;33.99
78123;BME280;67376;44.802;10.332;2023-02-28T09:18:24;101770.31;;;16.82;34.39
78123;BME280;67376;44.802;10.332;2023-02-28T09:20:50;101762.69;;;16.86;34.12
78123;BME280;67376;44.802;10.332;2023-02-28T09:23:16;101770.69;;;16.79;33.96
78123;BME280;67376;44.802;10.332;2023-02-28T09:25:50;101770.69;;;16.79;34.25
78123;BME280;67376;44.802;10.332;2023-02-28T09:28:17;101767.75;;;16.74;33.73
78123;BME280;67376;44.802;10.332;2023-02-28T09:30:49;101762.97;;;16.76;34.09
78123;BME280;67376;44.802;10.332;2023-02-28T09:33:16;101763.81;;;16.76;33.83
78123;BME280;67376;44.802;10.332;2023-02-28T09:35:41;101761.53;;;16.73;34.15
78123;BME280;67376;44.802;10.332;2023-02-28T09:38:08;101761.13;;;16.76;34.32
78123;BME280;67376;44.802;10.332;2023-02-28T09:40:41;101767.53;;;16.75;33.94
78123;BME280;67376;44.802;10.332;2023-02-28T09:43:12;101756.75;;;16.75;34.31
78123;BME280;67376;44.802;10.332;2023-02-28T09:45:40;101760.28;;;16.76;33.98
78123;BME280;67376;44.802;10.332;2023-02-28T09:48:14;101767.63;;;16.82;34.26
78123;BME280;67376;44.802;10.332;2023-02-28T09:50:55;101769.03;;;16.78;33.83
78123;BME280;67376;44.802;10.332;2023-02-28T09:53:33;101767.16;;;16.78;33.96
78123;BME280;67376;44.802;10.332;2023-02-28T09:56:08;101773.97;;;16.74;33.23
78123;BME280;67376;44.802;10.332;2023-02-28T09:58:42;101770.22;;;16.75;34.23
78123;BME280;67376;44.802;10.332;2023-02-28T10:01:27;101769.22;;;16.76;34.24
78123;BME280;67376;44.802;10.332;2023-02-28T10:04:03;101770.22;;;16.75;33.90
78123;BME280;67376;44.802;10.332;2023-02-28T10:06:39;101771.66;;;16.71;33.75
78123;BME280;67376;44.802;10.332;2023-02-28T10:09:11;101768.38;;;16.76;33.92
78123;BME280;67376;44.802;10.332;2023-02-28T10:11:42;101771.34;;;16.81;34.30
78123;BME280;67376;44.802;10.332;2023-02-28T10:19:58;101768.00;;;16.79;33.69
78123;BME280;67376;44.802;10.332;2023-02-28T10:22:35;101771.91;;;16.76;34.11
78123;BME280;67376;44.802;10.332;2023-02-28T10:25:19;101768.78;;;16.73;34.05
78123;BME280;67376;44.802;10.332;2023-02-28T10:27:45;101773.56;;;16.77;33.43
78123;BME280;67376;44.802;10.332;2023-02-28T10:30:12;101769.84;;;16.78;33.75
78123;BME280;67376;44.802;10.332;2023-02-28T10:32:49;101773.75;;;16.76;34.05
78123;BME280;67376;44.802;10.332;2023-02-28T10:35:18;101769.84;;;16.78;33.97
78123;BME280;67376;44.802;10.332;2023-02-28T10:38:05;101770.69;;;16.79;34.03
78123;BME280;67376;44.802;10.332;2023-02-28T10:40:37;101771.06;;;16.76;33.67
78123;BME280;67376;44.802;10.332;2023-02-28T10:45:38;101768.19;;;16.77;34.11
78123;BME280;67376;44.802;10.332;2023-02-28T10:50:53;101761.13;;;16.76;33.97
78123;BME280;67376;44.802;10.332;2023-02-28T11:03:48;101757.03;;;16.80;33.74
78123;BME280;67376;44.802;10.332;2023-02-28T11:06:33;101750.13;;;16.78;34.25
78123;BME280;67376;44.802;10.332;2023-02-28T11:09:04;101748.28;;;16.78;33.97
78123;BME280;67376;44.802;10.332;2023-02-28T11:11:43;101747.72;;;16.83;33.82
78123;BME280;67376;44.802;10.332;2023-02-28T11:14:19;101745.22;;;16.81;34.06
78123;BME280;67376;44.802;10.332;2023-02-28T11:16:46;101751.81;;;16.79;33.55
78123;BME280;67376;44.802;10.332;2023-02-28T11:19:45;101752.41;;;16.74;33.70
78123;BME280;67376;44.802;10.332;2023-02-28T11:22:17;101740.19;;;16.78;33.45
78123;BME280;67376;44.802;10.332;2023-02-28T11:24:47;101737.31;;;16.80;33.50
78123;BME280;67376;44.802;10.332;2023-02-28T11:29:55;101719.28;;;16.80;33.26
78123;BME280;67376;44.802;10.332;2023-02-28T11:32:28;101729.16;;;16.73;33.43
78123;BME280;67376;44.802;10.332;2023-02-28T11:37:32;101720.47;;;16.78;33.71
78123;BME280;67376;44.802;10.332;2023-02-28T11:39:58;101714.72;;;16.81;33.32
78123;BME280;67376;44.802;10.332;2023-02-28T11:45:22;101712.84;;;16.81;33.94
78123;BME280;67376;44.802;10.332;2023-02-28T11:48:26;101703.09;;;16.80;33.43
78123;BME280;67376;44.802;10.332;2023-02-28T11:51:10;101702.63;;;16.77;33.32
78123;BME280;67376;44.802;10.332;2023-02-28T11:56:23;101699.94;;;16.77;33.36
78123;BME280;67376;44.802;10.332;2023-02-28T12:05:20;101693.50;;;16.78;33.30
78123;BME280;67376;44.802;10.332;2023-02-28T12:07:31;101688.75;;;16.80;33.27
78123;BME280;67376;44.802;10.332;2023-02-28T12:10:49;101679.84;;;16.79;33.50
78123;BME280;67376;44.802;10.332;2023-02-28T12:13:23;101675.47;;;16.78;33.33
78123;BME280;67376;44.802;10.332;2023-02-28T12:22:00;101659.66;;;16.75;33.70
78123;BME280;67376;44.802;10.332;2023-02-28T12:27:44;101656.41;;;16.80;33.22
78123;BME280;67376;44.802;10.332;2023-02-28T12:30:19;101654.72;;;16.79;33.33
78123;BME280;67376;44.802;10.332;2023-02-28T12:32:49;101650.19;;;16.79;33.29
78123;BME280;67376;44.802;10.332;2023-02-28T12:35:23;101637.47;;;16.73;33.40
78123;BME280;67376;44.802;10.332;2023-02-28T12:37:58;101633.16;;;16.79;33.12
78123;BME280;67376;44.802;10.332;2023-02-28T12:40:40;101637.06;;;16.76;33.66
78123;BME280;67376;44.802;10.332;2023-02-28T12:43:08;101623.47;;;16.84;33.24
78123;BME280;67376;44.802;10.332;2023-02-28T12:48:08;101613.44;;;16.78;32.99
78123;BME280;67376;44.802;10.332;2023-02-28T12:50:36;101620.78;;;16.84;33.15
78123;BME280;67376;44.802;10.332;2023-02-28T12:55:48;101618.41;;;16.75;33.05
78123;BME280;67376;44.802;10.332;2023-02-28T12:58:34;101609.50;;;16.74;33.40
78123;BME280;67376;44.802;10.332;2023-02-28T13:09:12;101602.00;;;16.76;33.17
78123;BME280;67376;44.802;10.332;2023-02-28T13:11:43;101598.75;;;16.81;33.25
78123;BME280;67376;44.802;10.332;2023-02-28T13:16:58;101587.97;;;16.81;33.41
78123;BME280;67376;44.802;10.332;2023-02-28T13:19:26;101597.25;;;16.78;33.52
78123;BME280;67376;44.802;10.332;2023-02-28T13:21:53;101576.06;;;16.75;33.40
78123;BME280;67376;44.802;10.332;2023-02-28T13:29:31;101567.97;;;16.75;33.20
78123;BME280;67376;44.802;10.332;2023-02-28T13:40:06;101556.25;;;16.83;33.46
78123;BME280;67376;44.802;10.332;2023-02-28T13:47:52;101548.78;;;16.85;33.70
78123;BME280;67376;44.802;10.332;2023-02-28T13:56:21;101545.66;;;16.81;33.59
78123;BME280;67376;44.802;10.332;2023-02-28T14:06:33;101541.53;;;16.86;33.28
78123;BME280;67376;44.802;10.332;2023-02-28T14:09:50;101536.53;;;16.82;33.53
78123;BME280;67376;44.802;10.332;2023-02-28T14:11:48;101530.31;;;16.82;33.49
78123;BME280;67376;44.802;10.332;2023-02-28T14:17:02;101527.22;;;16.85;33.34
78123;BME280;67376;44.802;10.332;2023-02-28T14:19:32;101521.38;;;16.81;33.65
78123;BME280;67376;44.802;10.332;2023-02-28T14:36:03;101520.53;;;16.81;34.03
78123;BME280;67376;44.802;10.332;2023-02-28T14:38:32;101515.97;;;16.81;33.76
78123;BME280;67376;44.802;10.332;2023-02-28T14:41:04;101511.88;;;16.86;33.77
78123;BME280;67376;44.802;10.332;2023-02-28T14:43:32;101517.66;;;16.82;33.35
78123;BME280;67376;44.802;10.332;2023-02-28T14:46:00;101507.06;;;16.81;34.15
78123;BME280;67376;44.802;10.332;2023-02-28T14:48:27;101512.91;;;16.84;33.59
78123;BME280;67376;44.802;10.332;2023-02-28T14:50:58;101507.69;;;16.83;33.68
78123;BME280;67376;44.802;10.332;2023-02-28T14:53:29;101505.44;;;16.87;33.62
78123;BME280;67376;44.802;10.332;2023-02-28T14:55:56;101503.16;;;16.83;33.66
78123;BME280;67376;44.802;10.332;2023-02-28T14:58:30;101489.66;;;16.83;33.89
78123;BME280;67376;44.802;10.332;2023-02-28T15:00:58;101504.44;;;16.88;33.72
78123;BME280;67376;44.802;10.332;2023-02-28T15:05:58;101501.72;;;16.88;33.46
78123;BME280;67376;44.802;10.332;2023-02-28T15:08:24;101502.94;;;16.85;33.83